Time;durP1;ratioP1;P1;durP2;ratioP2;P2;SDS_P1;SDS_P2;PMS_P1;PMS_P2;Temp;Humidity;BMP_temperature;BMP_pressure;BME280_temperature;BME280_humidity;BME280_pressure;Samples;Min_cycle;Max_cycle;Signal;HPM_P1;HPM_P2
2022/02/09 00:04:05;;;;;;;2.77;2.10;;;7.90;99.90;;;;;;4992232;28;20209;-53
2022/02/09 00:09:12;;;;;;;3.87;2.53;;;7.40;99.90;;;;;;4992358;28;20255;-51
2022/02/09 00:11:46;;;;;;;2.87;2.30;;;7.40;99.90;;;;;;4992596;28;20615;-53
2022/02/09 00:15:15;;;;;;;3.77;2.90;;;7.40;99.90;;;;;;4991734;28;20187;-50
2022/02/09 00:20:11;;;;;;;5.20;2.83;;;7.60;99.90;;;;;;4992606;28;20176;-55
2022/02/09 00:26:20;;;;;;;4.00;2.60;;;7.70;99.90;;;;;;4992480;28;20193;-52
2022/02/09 00:28:31;;;;;;;3.53;2.67;;;7.80;99.90;;;;;;4991956;28;20235;-50
2022/02/09 01:11:19;;;;;;;5.33;2.50;;;7.60;99.90;;;;;;4995973;28;20714;-54
2022/02/09 01:37:55;;;;;;;3.20;1.90;;;7.80;99.90;;;;;;4995478;28;20693;-50
2022/02/09 01:57:35;;;;;;;3.33;1.80;;;7.20;99.90;;;;;;4897272;29;20236;-56
2022/02/09 02:00:01;;;;;;;2.80;1.60;;;7.10;99.90;;;;;;4896484;29;20179;-49
2022/02/09 02:02:26;;;;;;;2.57;1.77;;;6.90;99.90;;;;;;4896842;29;20225;-51
2022/02/09 02:04:52;;;;;;;3.17;1.90;;;6.80;99.90;;;;;;4896269;29;20283;-55
2022/02/09 02:07:30;;;;;;;2.73;1.80;;;6.80;99.90;;;;;;4896938;29;20223;-50
2022/02/09 02:10:02;;;;;;;2.17;1.97;;;7.00;99.90;;;;;;4896576;29;20180;-50
2022/02/09 02:12:29;;;;;;;4.03;1.93;;;7.20;99.90;;;;;;4896618;29;20176;-55
2022/02/09 02:15:06;;;;;;;2.30;1.90;;;7.40;99.90;;;;;;4937838;28;20204;-54
2022/02/09 02:17:43;;;;;;;3.43;2.30;;;7.60;99.90;;;;;;4994334;28;20688;-51
2022/02/09 02:20:26;;;;;;;4.20;2.03;;;7.60;99.90;;;;;;4994653;28;20657;-54
2022/02/09 02:28:50;;;;;;;2.70;2.30;;;7.20;99.90;;;;;;4952946;29;20190;-57
2022/02/09 02:45:07;;;;;;;4.30;2.43;;;6.30;99.90;;;;;;4952723;29;20639;-54
2022/02/09 02:58:54;;;;;;;2.00;1.83;;;6.30;99.90;;;;;;4877156;29;20321;-53
2022/02/09 03:12:32;;;;;;;2.27;1.90;;;6.50;99.90;;;;;;4896803;29;20181;-51
2022/02/09 03:15:06;;;;;;;4.13;2.10;;;6.50;99.90;;;;;;4895296;29;20208;-52
2022/02/09 03:17:36;;;;;;;3.53;2.40;;;6.50;99.90;;;;;;4894452;29;20276;-51
2022/02/09 03:20:22;;;;;;;4.57;2.43;;;6.30;99.90;;;;;;4895064;29;20188;-53
2022/02/09 03:23:04;;;;;;;2.87;2.40;;;6.40;99.90;;;;;;4894858;29;20212;-53
2022/02/09 03:25:53;;;;;;;5.10;2.90;;;6.40;99.90;;;;;;4905755;28;20196;-54
2022/02/09 03:42:22;;;;;;;3.90;2.90;;;6.20;99.90;;;;;;4992587;28;20175;-54
2022/02/09 03:42:36;;;;;;;2.57;2.33;;;6.60;99.90;;;;;;4993033;28;20204;-51
2022/02/09 03:53:11;;;;;;;3.03;2.53;;;6.70;99.90;;;;;;4993048;28;20176;-53
2022/02/09 03:58:06;;;;;;;2.97;2.30;;;6.70;99.90;;;;;;4992682;28;20847;-50
2022/02/09 04:00:38;;;;;;;2.70;2.10;;;6.70;99.90;;;;;;4992532;28;20185;-51
2022/02/09 04:03:06;;;;;;;4.07;2.30;;;6.80;99.90;;;;;;4992648;28;20243;-50
2022/02/09 04:05:32;;;;;;;2.13;1.93;;;6.80;99.90;;;;;;4992356;28;20189;-54
2022/02/09 04:07:59;;;;;;;3.13;2.10;;;6.80;99.90;;;;;;4991749;28;20181;-50
2022/02/09 04:10:34;;;;;;;2.50;1.70;;;6.80;99.90;;;;;;4991191;28;20172;-50
2022/02/09 04:38:16;;;;;;;2.40;1.80;;;7.40;99.90;;;;;;4991521;28;20650;-53
2022/02/09 04:40:09;;;;;;;2.33;1.50;;;7.30;99.90;;;;;;4986248;28;20247;-52
2022/02/09 04:48:02;;;;;;;2.33;1.80;;;7.50;99.90;;;;;;4973158;28;20196;-52
2022/02/09 04:50:32;;;;;;;3.23;2.23;;;7.60;99.90;;;;;;4992063;28;20728;-53
2022/02/09 04:58:24;;;;;;;3.60;1.93;;;7.70;99.90;;;;;;4991639;28;20177;-50
2022/02/09 05:03:48;;;;;;;2.50;2.00;;;7.70;99.90;;;;;;4991727;28;20205;-54
2022/02/09 05:20:39;;;;;;;2.63;1.70;;;7.50;99.90;;;;;;4990393;28;20188;-56
2022/02/09 05:27:49;;;;;;;2.20;1.87;;;7.80;99.90;;;;;;4994990;28;20650;-53
2022/02/09 05:30:14;;;;;;;2.53;1.77;;;7.90;99.90;;;;;;4995024;28;20224;-53
2022/02/09 05:32:40;;;;;;;5.00;1.97;;;8.00;99.90;;;;;;4995212;28;20189;-56
2022/02/09 05:35:06;;;;;;;2.47;2.20;;;8.10;99.90;;;;;;4994374;28;20662;-56
2022/02/09 05:37:32;;;;;;;1.93;1.73;;;8.10;99.90;;;;;;4994211;28;20547;-53
2022/02/09 05:39:57;;;;;;;2.43;1.53;;;8.20;99.90;;;;;;4994008;28;20174;-54
2022/02/09 05:42:23;;;;;;;2.20;1.83;;;8.20;99.90;;;;;;4994676;28;20284;-54
2022/02/09 05:44:48;;;;;;;3.87;1.83;;;8.20;99.90;;;;;;4993949;28;20193;-52
2022/02/09 05:52:22;;;;;;;3.97;1.70;;;8.20;99.90;;;;;;4994872;28;20206;-52
2022/02/09 05:59:45;;;;;;;4.07;2.10;;;8.00;99.90;;;;;;5005023;28;20185;-54
2022/02/09 06:02:11;;;;;;;2.20;2.00;;;8.00;99.90;;;;;;4983770;28;20255;-50
2022/02/09 06:04:38;;;;;;;3.10;2.03;;;8.00;99.90;;;;;;4994090;28;20532;-53
2022/02/09 06:07:04;;;;;;;2.10;2.00;;;7.90;99.90;;;;;;4979306;28;20225;-51
2022/02/09 06:09:30;;;;;;;2.03;1.87;;;7.90;99.90;;;;;;4974601;28;20178;-50
2022/02/09 06:12:14;;;;;;;2.57;1.90;;;7.80;99.90;;;;;;4975195;28;20596;-50
2022/02/09 06:19:53;;;;;;;5.10;2.40;;;7.70;99.90;;;;;;4986548;28;20184;-57
2022/02/09 06:22:21;;;;;;;2.47;1.80;;;7.70;99.90;;;;;;4982091;28;20197;-52
2022/02/09 06:24:47;;;;;;;2.20;2.00;;;7.70;99.90;;;;;;4962347;28;20201;-54
2022/02/09 06:27:13;;;;;;;2.13;1.93;;;7.70;99.90;;;;;;4975484;28;20170;-51
2022/02/09 06:29:44;;;;;;;2.03;1.83;;;7.70;99.90;;;;;;4993962;28;20173;-52
2022/02/09 06:32:10;;;;;;;3.33;2.20;;;7.80;99.90;;;;;;4993127;28;20347;-53
2022/02/09 06:34:38;;;;;;;3.53;2.10;;;7.80;99.90;;;;;;4993844;28;20189;-56
2022/02/09 06:37:13;;;;;;;2.93;2.30;;;7.80;99.90;;;;;;4993646;28;20208;-53
2022/02/09 06:39:43;;;;;;;2.87;2.40;;;7.80;99.90;;;;;;4993120;28;20181;-51
2022/02/09 06:42:08;;;;;;;3.47;2.20;;;7.90;99.90;;;;;;4993737;28;20635;-53
2022/02/09 06:44:34;;;;;;;2.73;2.03;;;7.90;99.90;;;;;;4993804;28;20192;-55
2022/02/09 06:46:59;;;;;;;4.50;2.70;;;7.80;99.90;;;;;;4989792;28;20690;-53
2022/02/09 06:49:25;;;;;;;2.83;2.40;;;7.80;99.90;;;;;;4992829;28;20176;-56
2022/02/09 06:51:51;;;;;;;4.17;2.57;;;7.80;99.90;;;;;;4993771;28;20647;-57
2022/02/09 06:54:31;;;;;;;3.83;2.90;;;7.80;99.90;;;;;;4993471;28;20197;-54
2022/02/09 06:57:05;;;;;;;2.60;2.30;;;7.80;99.90;;;;;;4993828;28;20180;-55
2022/02/09 06:59:31;;;;;;;4.70;2.67;;;7.80;99.90;;;;;;4993413;28;20166;-51
2022/02/09 07:02:04;;;;;;;3.10;2.30;;;7.80;99.90;;;;;;4993746;28;20177;-55
2022/02/09 07:04:37;;;;;;;3.90;2.30;;;7.80;99.90;;;;;;4993393;28;20201;-52
2022/02/09 07:07:04;;;;;;;3.13;2.47;;;7.60;99.90;;;;;;4993854;28;20173;-51
2022/02/09 07:09:31;;;;;;;3.07;2.20;;;7.50;99.90;;;;;;4993230;28;20173;-52
2022/02/09 07:11:56;;;;;;;4.67;2.47;;;7.50;99.90;;;;;;4993581;28;20177;-52
2022/02/09 07:14:28;;;;;;;2.73;2.10;;;7.50;99.90;;;;;;4993357;28;20247;-51
2022/02/09 07:16:56;;;;;;;2.67;2.10;;;7.50;99.90;;;;;;4993234;28;20643;-52
2022/02/09 07:19:22;;;;;;;4.77;2.60;;;7.70;99.90;;;;;;4993252;28;20176;-51
2022/02/09 07:21:48;;;;;;;2.63;2.10;;;7.80;99.90;;;;;;4993213;28;20177;-51
2022/02/09 07:24:17;;;;;;;3.80;2.57;;;7.90;99.90;;;;;;4993145;28;20299;-50
2022/02/09 07:29:17;;;;;;;2.77;2.27;;;8.00;99.90;;;;;;4993236;28;21078;-51
2022/02/09 07:31:44;;;;;;;3.10;2.47;;;8.00;99.90;;;;;;4993091;28;20169;-55
2022/02/09 07:34:11;;;;;;;2.27;2.07;;;8.00;99.90;;;;;;4993026;28;20228;-53
2022/02/09 07:36:38;;;;;;;3.63;2.60;;;8.10;99.90;;;;;;4992962;28;20181;-51
2022/02/09 07:39:09;;;;;;;3.40;2.40;;;8.20;99.90;;;;;;4992955;28;20550;-51
2022/02/09 07:41:36;;;;;;;2.43;2.23;;;8.10;99.90;;;;;;4992685;28;20593;-52
2022/02/09 07:44:16;;;;;;;2.40;2.20;;;8.10;99.90;;;;;;4991503;28;20213;-50
2022/02/09 07:52:21;;;;;;;3.53;2.20;;;7.60;99.90;;;;;;4951854;29;20186;-52
2022/02/09 07:54:47;;;;;;;2.77;2.07;;;7.50;99.90;;;;;;4951642;29;20250;-54
2022/02/09 07:57:12;;;;;;;4.17;2.20;;;7.50;99.90;;;;;;4951458;29;20346;-51
2022/02/09 07:59:38;;;;;;;4.87;2.13;;;7.60;99.90;;;;;;4967637;28;20179;-54
2022/02/09 08:02:04;;;;;;;4.13;2.60;;;7.60;99.90;;;;;;4951797;28;20178;-51
2022/02/09 08:04:29;;;;;;;3.63;2.40;;;7.60;99.90;;;;;;4951352;29;20217;-57
2022/02/09 08:06:55;;;;;;;4.23;2.67;;;7.50;99.90;;;;;;4951774;29;20190;-53
2022/02/09 08:09:32;;;;;;;3.40;2.40;;;7.40;99.90;;;;;;4951300;29;20190;-52
2022/02/09 08:28:18;;;;;;;4.23;2.30;;;7.40;99.90;;;;;;4948319;28;20198;-55
2022/02/09 08:33:17;;;;;;;2.60;2.27;;;7.60;99.90;;;;;;4992267;28;20272;-52
2022/02/09 08:35:47;;;;;;;2.53;2.33;;;7.60;99.90;;;;;;4991912;28;20199;-54
2022/02/09 08:38:14;;;;;;;3.60;2.30;;;7.70;99.90;;;;;;4991912;28;20697;-54
2022/02/09 08:40:39;;;;;;;3.00;2.30;;;7.70;99.90;;;;;;4991629;28;20657;-55
2022/02/09 08:43:05;;;;;;;3.77;2.33;;;7.80;99.90;;;;;;4990811;28;20212;-54
2022/02/09 08:45:31;;;;;;;4.27;2.67;;;7.80;99.90;;;;;;4990419;28;20773;-55
2022/02/09 08:47:57;;;;;;;4.17;2.27;;;7.80;99.90;;;;;;4991438;28;20183;-53
2022/02/09 08:50:23;;;;;;;3.53;2.70;;;7.80;99.90;;;;;;4990855;28;20796;-56
2022/02/09 08:52:50;;;;;;;2.80;2.17;;;7.70;99.90;;;;;;4991464;28;20192;-51
2022/02/09 08:55:16;;;;;;;6.20;2.63;;;7.70;99.90;;;;;;4994925;28;20204;-51
2022/02/09 08:57:42;;;;;;;4.17;2.70;;;7.70;99.90;;;;;;4996285;28;20673;-50
2022/02/09 09:00:19;;;;;;;4.60;2.50;;;7.90;99.90;;;;;;4995873;28;20201;-52
2022/02/09 09:02:50;;;;;;;6.17;2.83;;;8.00;99.90;;;;;;4995955;28;20255;-48
2022/02/09 09:05:25;;;;;;;4.57;2.80;;;8.20;99.90;;;;;;4995196;28;20224;-53
2022/02/09 09:08:05;;;;;;;3.23;2.27;;;8.30;99.90;;;;;;4995553;28;20255;-50
2022/02/09 09:10:39;;;;;;;3.10;2.60;;;8.30;99.90;;;;;;4995569;28;20654;-52
2022/02/09 10:00:12;;;;;;;4.47;2.80;;;8.70;99.90;;;;;;4994805;28;20188;-51
2022/02/09 10:05:37;;;;;;;4.23;2.90;;;9.00;99.90;;;;;;4994049;28;20199;-51
2022/02/09 10:31:00;;;;;;;3.60;2.53;;;8.40;99.90;;;;;;4974657;28;20209;-55
2022/02/09 10:34:12;;;;;;;3.80;2.87;;;9.10;99.90;;;;;;4975022;28;20336;-51
2022/02/09 10:36:50;;;;;;;3.87;2.53;;;9.10;99.90;;;;;;4974121;28;20262;-55
2022/02/09 10:39:21;;;;;;;4.33;3.10;;;9.00;99.90;;;;;;4974567;28;20212;-58
2022/02/09 10:41:53;;;;;;;5.73;2.93;;;8.90;99.90;;;;;;4974449;28;20158;-50
2022/02/09 10:44:23;;;;;;;4.83;3.00;;;8.90;99.90;;;;;;4975366;28;20223;-53
2022/02/09 10:46:58;;;;;;;3.67;3.07;;;8.80;99.90;;;;;;4974411;28;20196;-52
2022/02/09 10:49:30;;;;;;;7.47;3.00;;;8.90;99.90;;;;;;4974051;28;20570;-52
2022/02/09 10:54:29;;;;;;;4.13;3.10;;;9.00;99.90;;;;;;4974188;28;20202;-55
2022/02/09 10:57:00;;;;;;;4.03;2.90;;;8.70;99.90;;;;;;4974572;28;20192;-56
2022/02/09 10:59:30;;;;;;;3.47;2.63;;;8.80;99.90;;;;;;4993029;28;20180;-54
2022/02/09 11:01:59;;;;;;;3.90;2.80;;;9.00;99.90;;;;;;5004357;28;20176;-50
2022/02/09 11:04:25;;;;;;;3.10;2.60;;;9.40;99.90;;;;;;5005203;28;20279;-54
2022/02/09 11:06:50;;;;;;;7.00;2.80;;;9.30;99.90;;;;;;4997244;28;20269;-52
2022/02/09 11:09:19;;;;;;;4.30;2.83;;;9.30;99.90;;;;;;5009287;28;20205;-51
2022/02/09 11:11:45;;;;;;;5.83;3.43;;;9.40;99.90;;;;;;4990786;28;20562;-53
2022/02/09 11:14:16;;;;;;;4.53;2.73;;;9.20;99.90;;;;;;5002655;28;20259;-54
2022/02/09 11:16:55;;;;;;;4.00;2.80;;;9.00;99.90;;;;;;5007320;28;20227;-55
2022/02/09 11:19:33;;;;;;;2.73;2.43;;;9.00;99.90;;;;;;4980810;28;20584;-52
2022/02/09 11:22:09;;;;;;;4.43;2.90;;;9.00;99.90;;;;;;4985382;28;20543;-51
2022/02/09 11:24:42;;;;;;;2.97;2.67;;;8.90;99.90;;;;;;4988406;28;20267;-53
2022/02/09 11:27:17;;;;;;;4.73;2.70;;;8.80;99.90;;;;;;5007163;28;20176;-49
2022/02/09 11:32:26;;;;;;;3.33;2.70;;;9.10;99.90;;;;;;5001868;28;20177;-52
2022/02/09 11:35:23;;;;;;;4.90;2.90;;;9.20;99.90;;;;;;5000987;28;20212;-50
2022/02/09 11:41:07;;;;;;;3.47;2.50;;;9.30;99.90;;;;;;5000022;28;20184;-52
2022/02/09 11:50:00;;;;;;;4.93;2.83;;;9.40;99.90;;;;;;4970686;28;20548;-53
2022/02/09 11:55:09;;;;;;;3.33;2.47;;;9.40;99.90;;;;;;4970743;28;20248;-52
2022/02/09 12:11:06;;;;;;;3.87;3.40;;;9.60;99.90;;;;;;4971094;28;20235;-51
2022/02/09 12:14:12;;;;;;;3.10;2.40;;;9.70;99.90;;;;;;4970367;28;20178;-52
2022/02/09 12:19:25;;;;;;;4.50;2.63;;;9.20;99.90;;;;;;4970711;28;20178;-52
2022/02/09 12:22:04;;;;;;;5.73;4.40;;;9.20;99.90;;;;;;4970738;28;20197;-52
2022/02/09 12:24:34;;;;;;;5.13;2.70;;;9.20;99.90;;;;;;4992387;28;20223;-51
2022/02/09 12:27:08;;;;;;;3.03;2.43;;;9.20;99.90;;;;;;4992399;28;20593;-56
2022/02/09 12:29:56;;;;;;;3.30;2.40;;;9.20;99.90;;;;;;4996339;28;20609;-52
2022/02/09 12:32:23;;;;;;;4.60;2.70;;;9.20;99.90;;;;;;4998775;28;20654;-55
2022/02/09 12:34:59;;;;;;;8.63;5.93;;;9.40;99.90;;;;;;4998865;28;20208;-55
2022/02/09 12:37:27;;;;;;;5.90;4.97;;;9.60;99.90;;;;;;4998936;28;20169;-54
2022/02/09 12:40:12;;;;;;;4.63;2.67;;;9.90;99.90;;;;;;4998695;28;20558;-52
2022/02/09 12:42:49;;;;;;;6.10;2.63;;;10.20;99.90;;;;;;4998775;28;20262;-54
2022/02/09 12:45:24;;;;;;;3.23;2.43;;;10.30;99.90;;;;;;4998716;28;20568;-49
2022/02/09 12:47:55;;;;;;;3.50;2.47;;;10.10;99.90;;;;;;4998887;28;20169;-54
2022/02/09 12:50:27;;;;;;;2.70;2.30;;;9.80;99.90;;;;;;4981799;28;20578;-51
2022/02/09 12:52:53;;;;;;;4.83;2.50;;;9.80;99.90;;;;;;4998634;28;20176;-50
2022/02/09 12:55:25;;;;;;;3.30;2.50;;;10.00;99.90;;;;;;4998455;28;20207;-50
2022/02/09 12:57:57;;;;;;;3.87;2.60;;;10.30;99.90;;;;;;4998702;28;20173;-51
2022/02/09 13:00:33;;;;;;;4.17;2.40;;;10.50;99.90;;;;;;4981917;28;20180;-51
2022/02/09 13:03:01;;;;;;;3.40;2.27;;;10.80;99.90;;;;;;4998825;28;20689;-55
2022/02/09 13:05:28;;;;;;;3.83;2.20;;;11.00;99.90;;;;;;4998204;28;20197;-54
2022/02/09 13:07:56;;;;;;;3.50;2.37;;;11.10;99.90;;;;;;4998515;28;20206;-48
2022/02/09 13:10:23;;;;;;;3.97;2.00;;;11.70;99.90;;;;;;4998488;28;20177;-54
2022/02/09 13:12:49;;;;;;;2.87;2.20;;;12.50;99.90;;;;;;4998617;28;20562;-50
2022/02/09 13:15:21;;;;;;;5.00;2.27;;;13.30;99.90;;;;;;4998232;28;20204;-51
2022/02/09 13:18:30;;;;;;;4.03;2.50;;;13.80;99.90;;;;;;4998546;28;20189;-50
2022/02/09 13:24:00;;;;;;;3.00;2.17;;;14.20;99.90;;;;;;4998593;28;20300;-50
2022/02/09 13:52:08;;;;;;;4.35;2.35;;;17.60;99.90;;;;;;4981132;28;20594;-50
2022/02/09 14:17:04;;;;;;;2.58;2.30;;;20.90;95.20;;;;;;4994582;28;20178;-55
2022/02/09 14:23:35;;;;;;;3.53;2.40;;;20.60;94.70;;;;;;4993363;28;20681;-57
2022/02/09 14:47:08;;;;;;;2.90;1.90;;;21.10;93.10;;;;;;4915070;29;20211;-52
2022/02/09 14:54:53;;;;;;;3.85;2.80;;;21.30;91.90;;;;;;4914289;29;20194;-58
2022/02/09 14:57:24;;;;;;;13.70;11.90;;;21.30;91.70;;;;;;4914736;29;20578;-55
2022/02/09 15:07:49;;;;;;;4.80;2.30;;;20.70;91.60;;;;;;4914478;29;20774;-54
2022/02/09 15:10:26;;;;;;;3.17;1.92;;;20.60;91.80;;;;;;4955134;28;20316;-59
2022/02/09 15:13:00;;;;;;;2.60;1.95;;;20.50;92.10;;;;;;4993899;28;20234;-52
2022/02/09 15:15:36;;;;;;;4.70;2.17;;;20.50;92.00;;;;;;5105132;22;20221;-59
2022/02/09 15:23:28;;;;;;;3.17;2.10;;;19.70;92.40;;;;;;5052497;28;20194;-58
2022/02/09 15:25:58;;;;;;;2.78;2.08;;;19.50;92.90;;;;;;5051676;28;20192;-58
2022/02/09 15:28:24;;;;;;;3.67;1.90;;;19.20;93.00;;;;;;5052080;28;20181;-58
2022/02/09 15:31:02;;;;;;;2.17;1.80;;;19.00;93.00;;;;;;5052122;28;20175;-58
2022/02/09 15:33:36;;;;;;;2.23;1.80;;;18.80;93.20;;;;;;5052179;28;20182;-57
2022/02/09 15:36:02;;;;;;;2.47;2.00;;;18.30;93.50;;;;;;5051923;28;20191;-58
2022/02/09 15:38:38;;;;;;;2.87;2.30;;;18.20;93.80;;;;;;5051925;28;20178;-57
2022/02/09 16:05:37;;;;;;;4.00;3.53;;;17.20;95.00;;;;;;5009431;28;20180;-56
2022/02/09 16:05:41;;;;;;;3.97;2.60;;;16.80;95.10;;;;;;5009091;28;20247;-56
2022/02/09 16:10:59;;;;;;;4.47;3.10;;;16.20;95.50;;;;;;5009380;28;20177;-56
2022/02/09 16:33:28;;;;;;;4.00;2.63;;;13.80;98.50;;;;;;5031137;28;20183;-58
2022/02/09 16:38:02;;;;;;;5.77;3.17;;;13.30;99.40;;;;;;5050977;28;20181;-55
2022/02/09 16:46:15;;;;;;;20.00;12.03;;;12.70;99.90;;;;;;5050240;28;20626;-56
2022/02/09 16:49:11;;;;;;;8.87;6.87;;;12.50;99.90;;;;;;5048300;28;20170;-55
2022/02/09 16:51:41;;;;;;;7.10;5.97;;;12.30;99.90;;;;;;5049819;28;20183;-56
2022/02/09 17:15:35;;;;;;;4.60;3.67;;;11.20;99.90;;;;;;5032691;28;20214;-60
2022/02/09 17:20:45;;;;;;;52.83;35.63;;;11.10;99.90;;;;;;5035030;28;20179;-55
2022/02/09 17:23:11;;;;;;;10.57;7.90;;;11.00;99.90;;;;;;5034802;28;20191;-56
2022/02/09 17:25:36;;;;;;;5.50;4.33;;;10.90;99.90;;;;;;5034776;28;20188;-58
2022/02/09 17:28:02;;;;;;;7.27;4.90;;;10.90;99.90;;;;;;5034574;28;20183;-58
2022/02/09 17:33:07;;;;;;;7.07;5.47;;;10.60;99.90;;;;;;5034636;28;20624;-53
2022/02/09 17:35:43;;;;;;;7.67;6.10;;;10.60;99.90;;;;;;5034124;28;20192;-57
2022/02/09 17:38:56;;;;;;;6.03;5.10;;;10.50;99.90;;;;;;5033851;28;20184;-56
2022/02/09 17:57:30;;;;;;;7.77;5.23;;;10.10;99.90;;;;;;5037474;28;20186;-60
2022/02/09 18:00:17;;;;;;;17.40;13.57;;;10.00;99.90;;;;;;5053179;28;20257;-59
2022/02/09 18:02:53;;;;;;;14.67;11.83;;;9.90;99.90;;;;;;5053726;28;20215;-59
2022/02/09 18:05:30;;;;;;;6.90;5.87;;;9.80;99.90;;;;;;5061381;28;20190;-55
2022/02/09 18:08:00;;;;;;;7.30;5.90;;;9.80;99.90;;;;;;5073260;28;20162;-58
2022/02/09 18:10:46;;;;;;;6.73;5.17;;;9.70;99.90;;;;;;5073764;28;20175;-60
2022/02/09 18:29:48;;;;;;;17.87;13.10;;;9.30;99.90;;;;;;5053291;28;20174;-52
2022/02/09 18:37:45;;;;;;;8.33;5.70;;;9.10;99.90;;;;;;5053601;28;20237;-53
2022/02/09 18:45:32;;;;;;;9.93;8.83;;;8.90;99.90;;;;;;5072698;28;20182;-54
2022/02/09 18:59:23;;;;;;;8.30;6.83;;;8.60;99.90;;;;;;5052202;28;20185;-53
2022/02/09 19:04:06;;;;;;;9.60;6.30;;;8.50;99.90;;;;;;5052084;28;20478;-56
2022/02/09 19:16:54;;;;;;;8.33;6.03;;;8.10;99.90;;;;;;5051960;28;20229;-54
2022/02/09 19:19:36;;;;;;;7.73;6.20;;;8.10;99.90;;;;;;5051818;28;20609;-51
2022/02/09 19:49:01;;;;;;;8.77;6.17;;;7.50;99.90;;;;;;5051839;28;20182;-50
2022/02/09 19:51:44;;;;;;;6.83;5.73;;;7.40;99.90;;;;;;5051901;28;20659;-56
2022/02/09 19:56:52;;;;;;;9.00;6.80;;;7.30;99.90;;;;;;5051737;28;20201;-54
2022/02/09 19:59:20;;;;;;;9.33;7.37;;;7.30;99.90;;;;;;5051351;28;20171;-51
2022/02/09 20:01:47;;;;;;;8.73;6.80;;;7.20;99.90;;;;;;5051821;28;20167;-53
2022/02/09 20:04:14;;;;;;;9.50;6.83;;;7.20;99.90;;;;;;5051489;28;20206;-55
2022/02/09 20:06:41;;;;;;;9.63;7.87;;;7.20;99.90;;;;;;5051251;28;20186;-54
2022/02/09 20:09:07;;;;;;;12.10;9.03;;;7.20;99.90;;;;;;5049995;28;20175;-54
2022/02/09 20:11:34;;;;;;;10.40;8.17;;;7.10;99.90;;;;;;5051528;28;20172;-56
2022/02/09 20:14:00;;;;;;;9.43;8.33;;;7.10;99.90;;;;;;5051616;28;20225;-51
2022/02/09 20:16:25;;;;;;;10.43;8.10;;;7.00;99.90;;;;;;5051011;28;20210;-56
2022/02/09 20:18:52;;;;;;;9.13;7.63;;;7.10;99.90;;;;;;5051087;28;20190;-53
2022/02/09 20:21:21;;;;;;;9.83;7.10;;;7.00;99.90;;;;;;5050363;28;20715;-53
2022/02/09 20:23:47;;;;;;;8.87;6.90;;;7.00;99.90;;;;;;5051418;28;20195;-56
2022/02/09 20:26:14;;;;;;;9.33;7.20;;;6.90;99.90;;;;;;5051083;28;20281;-52
2022/02/09 20:28:45;;;;;;;8.97;7.30;;;6.80;99.90;;;;;;5051243;28;20778;-53
2022/02/09 20:31:15;;;;;;;8.37;7.17;;;6.80;99.90;;;;;;5051393;28;20194;-50
2022/02/09 20:33:46;;;;;;;8.80;7.40;;;6.80;99.90;;;;;;5048390;28;20175;-53
2022/02/09 20:36:14;;;;;;;8.97;6.90;;;6.70;99.90;;;;;;5047691;28;20199;-57
2022/02/09 20:38:42;;;;;;;11.50;7.83;;;6.70;99.90;;;;;;5049970;28;20170;-49
2022/02/09 20:41:09;;;;;;;9.03;8.00;;;6.70;99.90;;;;;;5056740;28;20178;-51
2022/02/09 20:43:58;;;;;;;9.73;8.30;;;6.60;99.90;;;;;;5050062;28;20183;-51
2022/02/09 20:46:26;;;;;;;11.10;7.37;;;6.60;99.90;;;;;;5049242;28;20222;-51
2022/02/09 20:48:52;;;;;;;10.43;7.60;;;6.60;99.90;;;;;;5049197;28;20257;-55
2022/02/09 20:51:17;;;;;;;12.10;7.57;;;6.60;99.90;;;;;;5053856;28;20182;-56
2022/02/09 20:53:43;;;;;;;8.53;7.10;;;6.50;99.90;;;;;;5054975;28;20182;-54
2022/02/09 20:56:09;;;;;;;8.63;7.10;;;6.50;99.90;;;;;;5054095;28;20270;-53
2022/02/09 20:58:37;;;;;;;9.13;7.07;;;6.60;99.90;;;;;;5057810;28;20608;-53
2022/02/09 21:01:19;;;;;;;8.03;7.07;;;6.40;99.90;;;;;;5057938;28;20214;-55
2022/02/09 21:03:53;;;;;;;9.27;7.13;;;6.40;99.90;;;;;;5054474;28;20595;-51
2022/02/09 21:19:38;;;;;;;8.87;7.60;;;6.20;99.90;;;;;;5056363;28;20182;-57
2022/02/09 21:55:10;;;;;;;8.77;6.57;;;5.50;99.90;;;;;;4878095;29;20219;-53
2022/02/09 22:00:32;;;;;;;9.20;7.87;;;5.60;99.90;;;;;;4875643;29;20272;-55
2022/02/09 22:19:08;;;;;;;9.13;7.80;;;5.50;99.90;;;;;;4955742;28;20564;-52
2022/02/09 22:27:48;;;;;;;10.97;7.77;;;5.40;99.90;;;;;;4956128;29;20213;-55
2022/02/09 22:56:50;;;;;;;9.37;7.73;;;4.70;99.90;;;;;;4955132;29;20197;-55
2022/02/09 22:59:25;;;;;;;9.60;6.93;;;5.20;99.90;;;;;;4954649;28;20183;-59
2022/02/09 23:01:52;;;;;;;8.57;7.50;;;5.20;99.90;;;;;;4954991;28;20170;-60
2022/02/09 23:07:02;;;;;;;8.30;7.20;;;5.00;99.90;;;;;;4955129;29;20273;-59
2022/02/09 23:14:46;;;;;;;8.87;7.13;;;5.00;99.90;;;;;;4956845;28;20698;-58
2022/02/09 23:28:52;;;;;;;8.40;6.73;;;4.80;99.90;;;;;;4922748;29;20251;-58
